sensor_id;sensor_type;location;lat;lon;timestamp;pressure;altitude;pressure_sealevel;temperature;humidity
71567;BME280;59403;47.456;19.120;2022-11-04T00:01:33;100302.28;;;9.97;100.00
71567;BME280;59403;47.456;19.120;2022-11-04T00:04:00;100288.22;;;9.96;100.00
71567;BME280;59403;47.456;19.120;2022-11-04T00:06:28;100281.81;;;9.99;100.00
71567;BME280;59403;47.456;19.120;2022-11-04T00:08:57;100287.38;;;9.96;100.00
71567;BME280;59403;47.456;19.120;2022-11-04T00:11:25;100279.16;;;9.99;100.00
71567;BME280;59403;47.456;19.120;2022-11-04T00:14:11;100276.66;;;9.97;100.00
71567;BME280;59403;47.456;19.120;2022-11-04T00:16:39;100279.28;;;9.97;100.00
71567;BME280;59403;47.456;19.120;2022-11-04T00:19:23;100278.16;;;10.00;100.00
71567;BME280;59403;47.456;19.120;2022-11-04T00:21:52;100270.03;;;9.93;100.00
71567;BME280;59403;47.456;19.120;2022-11-04T00:24:36;100262.09;;;9.93;100.00
71567;BME280;59403;47.456;19.120;2022-11-04T00:27:21;100266.22;;;9.96;100.00
71567;BME280;59403;47.456;19.120;2022-11-04T00:30:07;100257.47;;;9.95;100.00
71567;BME280;59403;47.456;19.120;2022-11-04T00:32:34;100240.09;;;9.93;100.00
71567;BME280;59403;47.456;19.120;2022-11-04T00:35:19;100239.25;;;9.92;100.00
71567;BME280;59403;47.456;19.120;2022-11-04T00:37:48;100230.50;;;9.92;100.00
71567;BME280;59403;47.456;19.120;2022-11-04T00:40:15;100223.53;;;9.91;100.00
71567;BME280;59403;47.456;19.120;2022-11-04T00:42:43;100220.91;;;9.91;100.00
71567;BME280;59403;47.456;19.120;2022-11-04T00:45:10;100211.31;;;9.90;100.00
71567;BME280;59403;47.456;19.120;2022-11-04T00:47:37;100208.97;;;9.87;100.00
71567;BME280;59403;47.456;19.120;2022-11-04T00:50:06;100207.00;;;9.89;100.00
71567;BME280;59403;47.456;19.120;2022-11-04T00:52:32;100200.91;;;9.88;100.00
71567;BME280;59403;47.456;19.120;2022-11-04T00:55:01;100200.06;;;9.88;100.00
71567;BME280;59403;47.456;19.120;2022-11-04T00:57:28;100203.66;;;9.87;100.00
71567;BME280;59403;47.456;19.120;2022-11-04T00:59:55;100204.50;;;9.87;100.00
71567;BME280;59403;47.456;19.120;2022-11-04T01:02:22;100192.97;;;9.88;100.00
71567;BME280;59403;47.456;19.120;2022-11-04T01:04:49;100199.38;;;9.86;100.00
71567;BME280;59403;47.456;19.120;2022-11-04T01:07:15;100192.59;;;9.83;100.00
71567;BME280;59403;47.456;19.120;2022-11-04T01:09:42;100189.81;;;9.85;100.00
71567;BME280;59403;47.456;19.120;2022-11-04T01:12:11;100190.09;;;9.82;100.00
71567;BME280;59403;47.456;19.120;2022-11-04T01:14:37;100192.72;;;9.82;100.00
71567;BME280;59403;47.456;19.120;2022-11-04T01:17:05;100193.41;;;9.84;100.00
71567;BME280;59403;47.456;19.120;2022-11-04T01:19:31;100192.44;;;9.85;100.00
71567;BME280;59403;47.456;19.120;2022-11-04T01:21:58;100203.03;;;9.85;100.00
71567;BME280;59403;47.456;19.120;2022-11-04T01:24:25;100208.97;;;9.87;100.00
71567;BME280;59403;47.456;19.120;2022-11-04T01:26:52;100197.56;;;9.86;100.00
71567;BME280;59403;47.456;19.120;2022-11-04T01:29:20;100189.81;;;9.85;100.00
71567;BME280;59403;47.456;19.120;2022-11-04T01:31:47;100180.03;;;9.85;100.00
71567;BME280;59403;47.456;19.120;2022-11-04T01:34:14;100178.91;;;9.88;100.00
71567;BME280;59403;47.456;19.120;2022-11-04T01:36:41;100181.38;;;9.89;100.00
71567;BME280;59403;47.456;19.120;2022-11-04T01:39:08;100180.38;;;9.90;100.00
71567;BME280;59403;47.456;19.120;2022-11-04T01:41:35;100181.06;;;9.92;100.00
71567;BME280;59403;47.456;19.120;2022-11-04T01:44:03;100172.16;;;9.93;100.00
71567;BME280;59403;47.456;19.120;2022-11-04T01:46:53;100169.50;;;9.93;100.00
71567;BME280;59403;47.456;19.120;2022-11-04T01:49:24;100161.56;;;9.93;100.00
71567;BME280;59403;47.456;19.120;2022-11-04T01:51:55;100153.31;;;9.96;100.00
71567;BME280;59403;47.456;19.120;2022-11-04T01:54:24;100146.50;;;9.94;100.00
71567;BME280;59403;47.456;19.120;2022-11-04T01:56:52;100147.50;;;9.93;100.00
71567;BME280;59403;47.456;19.120;2022-11-04T01:59:24;100145.53;;;9.95;100.00
71567;BME280;59403;47.456;19.120;2022-11-04T02:01:48;100128.81;;;9.94;100.00
71567;BME280;59403;47.456;19.120;2022-11-04T02:04:17;100117.41;;;9.94;100.00
71567;BME280;59403;47.456;19.120;2022-11-04T02:06:56;100122.69;;;9.94;100.00
71567;BME280;59403;47.456;19.120;2022-11-04T02:09:26;100121.72;;;9.95;100.00
71567;BME280;59403;47.456;19.120;2022-11-04T02:11:53;100107.66;;;9.94;100.00
71567;BME280;59403;47.456;19.120;2022-11-04T02:17:27;100111.00;;;9.96;100.00
71567;BME280;59403;47.456;19.120;2022-11-04T02:20:14;100110.31;;;9.94;100.00
71567;BME280;59403;47.456;19.120;2022-11-04T02:23:10;100100.56;;;9.95;100.00
71567;BME280;59403;47.456;19.120;2022-11-04T02:32:03;100094.28;;;9.96;100.00
71567;BME280;59403;47.456;19.120;2022-11-04T02:34:41;100097.09;;;9.94;100.00
71567;BME280;59403;47.456;19.120;2022-11-04T02:37:23;100091.97;;;9.93;100.00
71567;BME280;59403;47.456;19.120;2022-11-04T02:39:57;100088.31;;;9.94;100.00
71567;BME280;59403;47.456;19.120;2022-11-04T02:42:36;100082.88;;;9.95;100.00
71567;BME280;59403;47.456;19.120;2022-11-04T02:45:12;100086.50;;;9.94;100.00
71567;BME280;59403;47.456;19.120;2022-11-04T02:47:44;100079.88;;;9.90;100.00
71567;BME280;59403;47.456;19.120;2022-11-04T02:50:16;100056.91;;;9.91;100.00
71567;BME280;59403;47.456;19.120;2022-11-04T02:52:51;100059.53;;;9.91;100.00
71567;BME280;59403;47.456;19.120;2022-11-04T02:55:22;100064.00;;;9.90;100.00
71567;BME280;59403;47.456;19.120;2022-11-04T02:57:52;100066.66;;;9.90;100.00
71567;BME280;59403;47.456;19.120;2022-11-04T03:00:21;100058.56;;;9.92;100.00
71567;BME280;59403;47.456;19.120;2022-11-04T03:02:51;100056.75;;;9.92;100.00
71567;BME280;59403;47.456;19.120;2022-11-04T03:05:22;100052.28;;;9.93;100.00
71567;BME280;59403;47.456;19.120;2022-11-04T03:07:55;100052.97;;;9.95;100.00
71567;BME280;59403;47.456;19.120;2022-11-04T03:10:27;100049.16;;;9.97;100.00
71567;BME280;59403;47.456;19.120;2022-11-04T03:12:59;100072.81;;;9.99;100.00
71567;BME280;59403;47.456;19.120;2022-11-04T03:15:31;100079.75;;;10.00;100.00
71567;BME280;59403;47.456;19.120;2022-11-04T03:18:06;100069.00;;;10.01;100.00
71567;BME280;59403;47.456;19.120;2022-11-04T03:20:37;100068.16;;;10.01;100.00
71567;BME280;59403;47.456;19.120;2022-11-04T03:23:06;100064.22;;;9.97;100.00
71567;BME280;59403;47.456;19.120;2022-11-04T03:25:37;100066.84;;;9.97;100.00
71567;BME280;59403;47.456;19.120;2022-11-04T03:28:17;100062.53;;;9.96;100.00
71567;BME280;59403;47.456;19.120;2022-11-04T03:30:47;100048.81;;;9.92;100.00
71567;BME280;59403;47.456;19.120;2022-11-04T03:33:24;100033.94;;;9.91;100.00
71567;BME280;59403;47.456;19.120;2022-11-04T03:35:53;100019.03;;;9.90;100.00
71567;BME280;59403;47.456;19.120;2022-11-04T03:38:21;100005.31;;;9.87;100.00
71567;BME280;59403;47.456;19.120;2022-11-04T03:40:49;99994.37;;;9.82;100.00
71567;BME280;59403;47.456;19.120;2022-11-04T03:43:19;99987.28;;;9.82;100.00
71567;BME280;59403;47.456;19.120;2022-11-04T03:45:49;100003.66;;;9.86;100.00
71567;BME280;59403;47.456;19.120;2022-11-04T03:48:16;100003.00;;;9.84;100.00
71567;BME280;59403;47.456;19.120;2022-11-04T03:50:47;99998.03;;;9.81;100.00
71567;BME280;59403;47.456;19.120;2022-11-04T03:53:17;99990.59;;;9.84;100.00
71567;BME280;59403;47.456;19.120;2022-11-04T03:55:58;99982.81;;;9.75;100.00
71567;BME280;59403;47.456;19.120;2022-11-04T03:58:38;99994.88;;;9.77;100.00
71567;BME280;59403;47.456;19.120;2022-11-04T04:01:18;100000.16;;;9.69;100.00
71567;BME280;59403;47.456;19.120;2022-11-04T04:03:52;100007.59;;;9.66;100.00
71567;BME280;59403;47.456;19.120;2022-11-04T04:06:27;99998.31;;;9.70;100.00
71567;BME280;59403;47.456;19.120;2022-11-04T04:08:59;99992.69;;;9.65;100.00
71567;BME280;59403;47.456;19.120;2022-11-04T04:11:44;99991.38;;;9.61;100.00
71567;BME280;59403;47.456;19.120;2022-11-04T04:14:16;99988.06;;;9.59;100.00
71567;BME280;59403;47.456;19.120;2022-11-04T04:17:05;99981.94;;;9.58;100.00
71567;BME280;59403;47.456;19.120;2022-11-04T04:19:34;99972.22;;;9.59;100.00
71567;BME280;59403;47.456;19.120;2022-11-04T04:22:07;99962.94;;;9.55;100.00
71567;BME280;59403;47.456;19.120;2022-11-04T04:24:40;99952.19;;;9.56;100.00
71567;BME280;59403;47.456;19.120;2022-11-04T04:27:27;99950.72;;;9.54;100.00
71567;BME280;59403;47.456;19.120;2022-11-04T04:30:00;99947.69;;;9.49;100.00
71567;BME280;59403;47.456;19.120;2022-11-04T04:32:32;99951.69;;;9.53;100.00
71567;BME280;59403;47.456;19.120;2022-11-04T04:35:00;99956.00;;;9.54;100.00
71567;BME280;59403;47.456;19.120;2022-11-04T04:37:47;99951.84;;;9.51;100.00
71567;BME280;59403;47.456;19.120;2022-11-04T04:40:16;99947.41;;;9.52;100.00
71567;BME280;59403;47.456;19.120;2022-11-04T04:43:03;99942.91;;;9.52;100.00
71567;BME280;59403;47.456;19.120;2022-11-04T04:45:50;99948.22;;;9.52;100.00
71567;BME280;59403;47.456;19.120;2022-11-04T04:48:19;99945.88;;;9.49;100.00
71567;BME280;59403;47.456;19.120;2022-11-04T04:50:48;99944.25;;;9.56;100.00
71567;BME280;59403;47.456;19.120;2022-11-04T04:53:18;99941.44;;;9.50;100.00
71567;BME280;59403;47.456;19.120;2022-11-04T04:55:45;99935.00;;;9.52;100.00
71567;BME280;59403;47.456;19.120;2022-11-04T04:58:12;99940.44;;;9.51;100.00
71567;BME280;59403;47.456;19.120;2022-11-04T05:00:39;99937.63;;;9.52;100.00
71567;BME280;59403;47.456;19.120;2022-11-04T05:03:06;99939.63;;;9.50;100.00
71567;BME280;59403;47.456;19.120;2022-11-04T05:05:32;99926.25;;;9.52;100.00
71567;BME280;59403;47.456;19.120;2022-11-04T05:08:03;99930.88;;;9.50;100.00
71567;BME280;59403;47.456;19.120;2022-11-04T05:10:32;99933.13;;;9.37;100.00
71567;BME280;59403;47.456;19.120;2022-11-04T05:12:59;99928.16;;;9.34;100.00
71567;BME280;59403;47.456;19.120;2022-11-04T05:15:43;99927.34;;;9.33;100.00
71567;BME280;59403;47.456;19.120;2022-11-04T05:18:10;99935.94;;;9.35;100.00
71567;BME280;59403;47.456;19.120;2022-11-04T05:20:37;99929.50;;;9.38;100.00
71567;BME280;59403;47.456;19.120;2022-11-04T05:23:05;99926.72;;;9.39;100.00
71567;BME280;59403;47.456;19.120;2022-11-04T05:25:33;99929.69;;;9.44;100.00
71567;BME280;59403;47.456;19.120;2022-11-04T05:28:00;99941.09;;;9.45;100.00
71567;BME280;59403;47.456;19.120;2022-11-04T05:30:28;99959.25;;;9.40;100.00
71567;BME280;59403;47.456;19.120;2022-11-04T05:32:55;99957.41;;;9.32;100.00
71567;BME280;59403;47.456;19.120;2022-11-04T05:35:22;99957.41;;;9.32;100.00
71567;BME280;59403;47.456;19.120;2022-11-04T05:37:49;99959.38;;;9.30;100.00
71567;BME280;59403;47.456;19.120;2022-11-04T05:40:16;99963.97;;;9.28;100.00
71567;BME280;59403;47.456;19.120;2022-11-04T05:42:44;99948.78;;;9.22;100.00
71567;BME280;59403;47.456;19.120;2022-11-04T05:45:11;99947.28;;;9.19;100.00
71567;BME280;59403;47.456;19.120;2022-11-04T05:47:38;99930.13;;;9.24;100.00
71567;BME280;59403;47.456;19.120;2022-11-04T05:50:05;99933.44;;;9.26;100.00
71567;BME280;59403;47.456;19.120;2022-11-04T05:52:35;99938.53;;;9.19;100.00
71567;BME280;59403;47.456;19.120;2022-11-04T05:55:02;99939.84;;;9.23;100.00
71567;BME280;59403;47.456;19.120;2022-11-04T05:57:28;99936.53;;;9.21;100.00
71567;BME280;59403;47.456;19.120;2022-11-04T05:59:57;99941.53;;;9.24;100.00
71567;BME280;59403;47.456;19.120;2022-11-04T06:02:23;99945.31;;;9.22;100.00
71567;BME280;59403;47.456;19.120;2022-11-04T06:04:50;99950.44;;;9.23;100.00
71567;BME280;59403;47.456;19.120;2022-11-04T06:07:17;99958.19;;;9.25;100.00
71567;BME280;59403;47.456;19.120;2022-11-04T06:09:44;99966.47;;;9.30;100.00
71567;BME280;59403;47.456;19.120;2022-11-04T06:12:14;99969.78;;;9.32;100.00
71567;BME280;59403;47.456;19.120;2022-11-04T06:14:42;99962.34;;;9.27;100.00
71567;BME280;59403;47.456;19.120;2022-11-04T06:17:13;99960.38;;;9.29;100.00
71567;BME280;59403;47.456;19.120;2022-11-04T06:19:40;99972.06;;;9.27;100.00
71567;BME280;59403;47.456;19.120;2022-11-04T06:22:08;99974.84;;;9.17;100.00
71567;BME280;59403;47.456;19.120;2022-11-04T06:24:35;99968.72;;;9.16;100.00
71567;BME280;59403;47.456;19.120;2022-11-04T06:27:02;99974.84;;;9.17;100.00
71567;BME280;59403;47.456;19.120;2022-11-04T06:29:29;99971.19;;;9.10;100.00
71567;BME280;59403;47.456;19.120;2022-11-04T06:31:56;99959.47;;;9.12;100.00
71567;BME280;59403;47.456;19.120;2022-11-04T06:34:25;99959.78;;;9.09;100.00
71567;BME280;59403;47.456;19.120;2022-11-04T06:36:51;99958.59;;;9.04;100.00
71567;BME280;59403;47.456;19.120;2022-11-04T06:39:18;99977.66;;;9.15;100.00
71567;BME280;59403;47.456;19.120;2022-11-04T06:41:46;99969.69;;;9.07;100.00
71567;BME280;59403;47.456;19.120;2022-11-04T06:44:13;99975.44;;;9.03;100.00
71567;BME280;59403;47.456;19.120;2022-11-04T06:46:40;99971.13;;;9.02;100.00
71567;BME280;59403;47.456;19.120;2022-11-04T06:49:10;99962.59;;;9.08;100.00
71567;BME280;59403;47.456;19.120;2022-11-04T06:51:39;99958.44;;;9.05;100.00
71567;BME280;59403;47.456;19.120;2022-11-04T06:54:06;99949.03;;;9.03;100.00
71567;BME280;59403;47.456;19.120;2022-11-04T06:56:33;99955.94;;;9.04;100.00
71567;BME280;59403;47.456;19.120;2022-11-04T06:59:01;99969.22;;;9.12;100.00
71567;BME280;59403;47.456;19.120;2022-11-04T07:01:29;99968.22;;;9.13;100.00
71567;BME280;59403;47.456;19.120;2022-11-04T07:03:58;99965.59;;;9.21;100.00
71567;BME280;59403;47.456;19.120;2022-11-04T07:06:27;99951.44;;;9.22;100.00
71567;BME280;59403;47.456;19.120;2022-11-04T07:08:57;99954.41;;;9.27;100.00
71567;BME280;59403;47.456;19.120;2022-11-04T07:11:26;99961.56;;;9.35;100.00
71567;BME280;59403;47.456;19.120;2022-11-04T07:13:53;99970.44;;;9.34;100.00
71567;BME280;59403;47.456;19.120;2022-11-04T07:16:20;99964.97;;;9.27;100.00
71567;BME280;59403;47.456;19.120;2022-11-04T07:18:48;99974.72;;;9.27;100.00
71567;BME280;59403;47.456;19.120;2022-11-04T07:21:16;99967.91;;;9.16;100.00
71567;BME280;59403;47.456;19.120;2022-11-04T07:23:43;99969.28;;;9.28;100.00
71567;BME280;59403;47.456;19.120;2022-11-04T07:26:12;99962.97;;;9.21;100.00
71567;BME280;59403;47.456;19.120;2022-11-04T07:28:39;99969.28;;;9.28;100.00
71567;BME280;59403;47.456;19.120;2022-11-04T07:31:07;99974.38;;;9.30;100.00
71567;BME280;59403;47.456;19.120;2022-11-04T07:33:34;99965.00;;;9.35;100.00
71567;BME280;59403;47.456;19.120;2022-11-04T07:36:05;99969.63;;;9.33;100.00
71567;BME280;59403;47.456;19.120;2022-11-04T07:38:33;99964.72;;;9.38;100.00
71567;BME280;59403;47.456;19.120;2022-11-04T07:40:59;99953.66;;;9.43;100.00
71567;BME280;59403;47.456;19.120;2022-11-04T07:43:28;99959.88;;;9.34;100.00
71567;BME280;59403;47.456;19.120;2022-11-04T07:45:59;99956.19;;;9.18;100.00
71567;BME280;59403;47.456;19.120;2022-11-04T07:48:26;99960.88;;;9.33;100.00
71567;BME280;59403;47.456;19.120;2022-11-04T07:50:54;99950.16;;;9.42;100.00
71567;BME280;59403;47.456;19.120;2022-11-04T07:53:21;99953.75;;;9.33;100.00
71567;BME280;59403;47.456;19.120;2022-11-04T07:55:48;99946.03;;;9.40;100.00
71567;BME280;59403;47.456;19.120;2022-11-04T07:58:16;99942.50;;;9.23;100.00
71567;BME280;59403;47.456;19.120;2022-11-04T08:00:44;99940.19;;;9.20;100.00
71567;BME280;59403;47.456;19.120;2022-11-04T08:03:11;99926.66;;;9.23;100.00
71567;BME280;59403;47.456;19.120;2022-11-04T08:05:38;99928.94;;;9.18;100.00
71567;BME280;59403;47.456;19.120;2022-11-04T08:08:05;99937.53;;;9.20;100.00
71567;BME280;59403;47.456;19.120;2022-11-04T08:10:32;99937.03;;;9.16;100.00
71567;BME280;59403;47.456;19.120;2022-11-04T08:12:59;99929.94;;;9.17;100.00
71567;BME280;59403;47.456;19.120;2022-11-04T08:15:26;99924.16;;;9.13;100.00
71567;BME280;59403;47.456;19.120;2022-11-04T08:17:55;99913.38;;;9.07;100.00
71567;BME280;59403;47.456;19.120;2022-11-04T08:20:22;99914.78;;;9.19;100.00
71567;BME280;59403;47.456;19.120;2022-11-04T08:22:49;99911.97;;;9.21;100.00
71567;BME280;59403;47.456;19.120;2022-11-04T08:25:16;99922.38;;;9.22;100.00
71567;BME280;59403;47.456;19.120;2022-11-04T08:27:43;99909.50;;;9.35;100.00
71567;BME280;59403;47.456;19.120;2022-11-04T08:30:10;99917.94;;;9.31;100.00
71567;BME280;59403;47.456;19.120;2022-11-04T08:32:37;99914.44;;;9.30;100.00
71567;BME280;59403;47.456;19.120;2022-11-04T08:35:07;99923.38;;;9.29;100.00
71567;BME280;59403;47.456;19.120;2022-11-04T08:37:34;99912.47;;;9.32;100.00
71567;BME280;59403;47.456;19.120;2022-11-04T08:40:01;99909.50;;;9.27;100.00
71567;BME280;59403;47.456;19.120;2022-11-04T08:42:28;99904.91;;;9.37;100.00
71567;BME280;59403;47.456;19.120;2022-11-04T08:44:55;99897.81;;;9.38;100.00
71567;BME280;59403;47.456;19.120;2022-11-04T08:47:22;99899.28;;;9.32;100.00
71567;BME280;59403;47.456;19.120;2022-11-04T08:49:49;99899.94;;;9.34;100.00
71567;BME280;59403;47.456;19.120;2022-11-04T08:52:17;99894.66;;;9.42;100.00
71567;BME280;59403;47.456;19.120;2022-11-04T08:54:44;99890.84;;;9.29;100.00
71567;BME280;59403;47.456;19.120;2022-11-04T08:57:11;99895.84;;;9.40;100.00
71567;BME280;59403;47.456;19.120;2022-11-04T08:59:38;99905.41;;;9.41;100.00
71567;BME280;59403;47.456;19.120;2022-11-04T09:02:05;99900.44;;;9.38;100.00
71567;BME280;59403;47.456;19.120;2022-11-04T09:04:33;99899.44;;;9.31;100.00
71567;BME280;59403;47.456;19.120;2022-11-04T09:07:01;99890.53;;;9.40;100.00
71567;BME280;59403;47.456;19.120;2022-11-04T09:09:32;99879.63;;;9.35;100.00
71567;BME280;59403;47.456;19.120;2022-11-04T09:11:59;99880.59;;;9.34;100.00
71567;BME280;59403;47.456;19.120;2022-11-04T09:14:29;99868.91;;;9.36;100.00
71567;BME280;59403;47.456;19.120;2022-11-04T09:16:56;99872.16;;;9.22;100.00
71567;BME280;59403;47.456;19.120;2022-11-04T09:19:23;99874.19;;;9.36;100.00
71567;BME280;59403;47.456;19.120;2022-11-04T09:21:50;99872.37;;;9.45;100.00
71567;BME280;59403;47.456;19.120;2022-11-04T09:24:17;99872.22;;;9.54;100.00
71567;BME280;59403;47.456;19.120;2022-11-04T09:26:45;99865.78;;;9.57;100.00
71567;BME280;59403;47.456;19.120;2022-11-04T09:29:12;99865.97;;;9.55;100.00
71567;BME280;59403;47.456;19.120;2022-11-04T09:31:39;99856.69;;;9.51;100.00
71567;BME280;59403;47.456;19.120;2022-11-04T09:34:07;99864.97;;;9.56;100.00
71567;BME280;59403;47.456;19.120;2022-11-04T09:36:34;99866.28;;;9.60;100.00
71567;BME280;59403;47.456;19.120;2022-11-04T09:39:01;99873.06;;;9.55;100.00
71567;BME280;59403;47.456;19.120;2022-11-04T09:41:46;99875.69;;;9.47;100.00
71567;BME280;59403;47.456;19.120;2022-11-04T09:44:22;99872.25;;;9.62;100.00
71567;BME280;59403;47.456;19.120;2022-11-04T09:49:18;99859.03;;;9.62;100.00
71567;BME280;59403;47.456;19.120;2022-11-04T09:51:47;99850.25;;;9.46;100.00
71567;BME280;59403;47.456;19.120;2022-11-04T09:54:20;99859.84;;;9.63;100.00
71567;BME280;59403;47.456;19.120;2022-11-04T09:56:51;99845.16;;;9.60;100.00
71567;BME280;59403;47.456;19.120;2022-11-04T09:59:26;99837.53;;;9.65;100.00
71567;BME280;59403;47.456;19.120;2022-11-04T10:02:17;99832.75;;;9.53;100.00
71567;BME280;59403;47.456;19.120;2022-11-04T10:04:54;99842.97;;;9.56;100.00
71567;BME280;59403;47.456;19.120;2022-11-04T10:10:31;99829.09;;;9.46;100.00
71567;BME280;59403;47.456;19.120;2022-11-04T10:13:14;99810.94;;;9.43;100.00
71567;BME280;59403;47.456;19.120;2022-11-04T10:16:01;99808.28;;;9.51;100.00
71567;BME280;59403;47.456;19.120;2022-11-04T10:18:41;99811.75;;;9.51;100.00
71567;BME280;59403;47.456;19.120;2022-11-04T10:21:22;99799.53;;;9.42;100.00
71567;BME280;59403;47.456;19.120;2022-11-04T10:24:05;99787.16;;;9.43;100.00
71567;BME280;59403;47.456;19.120;2022-11-04T10:26:41;99785.16;;;9.45;100.00
71567;BME280;59403;47.456;19.120;2022-11-04T10:29:22;99794.41;;;9.49;100.00
71567;BME280;59403;47.456;19.120;2022-11-04T10:31:55;99808.94;;;9.53;100.00
71567;BME280;59403;47.456;19.120;2022-11-04T10:34:29;99801.53;;;9.56;100.00
71567;BME280;59403;47.456;19.120;2022-11-04T10:36:58;99793.59;;;9.56;100.00
71567;BME280;59403;47.456;19.120;2022-11-04T10:39:29;99791.62;;;9.58;100.00
71567;BME280;59403;47.456;19.120;2022-11-04T10:41:57;99792.09;;;9.62;100.00
71567;BME280;59403;47.456;19.120;2022-11-04T10:44:28;99779.22;;;9.67;100.00
71567;BME280;59403;47.456;19.120;2022-11-04T10:47:03;99788.31;;;9.72;100.00
71567;BME280;59403;47.456;19.120;2022-11-04T10:49:59;99783.69;;;9.74;100.00
71567;BME280;59403;47.456;19.120;2022-11-04T10:52:27;99774.06;;;9.73;100.00
71567;BME280;59403;47.456;19.120;2022-11-04T10:54:54;99776.22;;;9.86;100.00
71567;BME280;59403;47.456;19.120;2022-11-04T10:57:26;99765.97;;;9.91;100.00
71567;BME280;59403;47.456;19.120;2022-11-04T10:59:56;99761.50;;;9.91;100.00
71567;BME280;59403;47.456;19.120;2022-11-04T11:02:45;99752.56;;;10.00;100.00
71567;BME280;59403;47.456;19.120;2022-11-04T11:05:20;99752.22;;;10.03;100.00
71567;BME280;59403;47.456;19.120;2022-11-04T11:07:52;99744.28;;;10.03;100.00
71567;BME280;59403;47.456;19.120;2022-11-04T11:10:20;99736.69;;;10.08;100.00
71567;BME280;59403;47.456;19.120;2022-11-04T11:12:54;99745.59;;;10.07;100.00
71567;BME280;59403;47.456;19.120;2022-11-04T11:15:33;99740.16;;;10.09;100.00
71567;BME280;59403;47.456;19.120;2022-11-04T11:18:13;99742.97;;;10.07;100.00
71567;BME280;59403;47.456;19.120;2022-11-04T11:20:41;99740.31;;;10.15;100.00
71567;BME280;59403;47.456;19.120;2022-11-04T11:23:41;99737.31;;;10.18;100.00
71567;BME280;59403;47.456;19.120;2022-11-04T11:26:10;99741.28;;;10.22;100.00
71567;BME280;59403;47.456;19.120;2022-11-04T11:28:39;99745.91;;;10.28;100.00
71567;BME280;59403;47.456;19.120;2022-11-04T11:31:10;99746.22;;;10.25;100.00
71567;BME280;59403;47.456;19.120;2022-11-04T11:33:48;99739.28;;;10.24;100.00
71567;BME280;59403;47.456;19.120;2022-11-04T11:36:19;99737.31;;;10.26;100.00
71567;BME280;59403;47.456;19.120;2022-11-04T11:38:59;99727.53;;;10.27;100.00
71567;BME280;59403;47.456;19.120;2022-11-04T11:41:29;99727.53;;;10.27;100.00
71567;BME280;59403;47.456;19.120;2022-11-04T11:44:03;99725.19;;;10.32;100.00
71567;BME280;59403;47.456;19.120;2022-11-04T11:46:34;99726.31;;;10.38;100.00
71567;BME280;59403;47.456;19.120;2022-11-04T11:49:04;99719.53;;;10.43;100.00
71567;BME280;59403;47.456;19.120;2022-11-04T11:51:33;99722.84;;;10.45;100.00
71567;BME280;59403;47.456;19.120;2022-11-04T11:54:15;99713.72;;;10.48;100.00
71567;BME280;59403;47.456;19.120;2022-11-04T11:56:45;99710.84;;;10.57;100.00
71567;BME280;59403;47.456;19.120;2022-11-04T11:59:27;99711.87;;;10.56;100.00
71567;BME280;59403;47.456;19.120;2022-11-04T12:02:13;99692.31;;;10.57;100.00
71567;BME280;59403;47.456;19.120;2022-11-04T12:04:46;99686.97;;;10.65;100.00
71567;BME280;59403;47.456;19.120;2022-11-04T12:07:19;99684.28;;;10.73;100.00
71567;BME280;59403;47.456;19.120;2022-11-04T12:09:54;99683.41;;;10.81;100.00
71567;BME280;59403;47.456;19.120;2022-11-04T12:12:34;99686.03;;;10.81;100.00
71567;BME280;59403;47.456;19.120;2022-11-04T12:15:20;99684.41;;;10.80;100.00
71567;BME280;59403;47.456;19.120;2022-11-04T12:18:15;99670.94;;;10.89;100.00
71567;BME280;59403;47.456;19.120;2022-11-04T12:20:51;99658.28;;;10.99;100.00
71567;BME280;59403;47.456;19.120;2022-11-04T12:23:25;99654.50;;;10.94;100.00
71567;BME280;59403;47.456;19.120;2022-11-04T12:26:04;99651.22;;;10.92;100.00
71567;BME280;59403;47.456;19.120;2022-11-04T12:28:45;99646.66;;;11.00;100.00
71567;BME280;59403;47.456;19.120;2022-11-04T12:31:22;99643.19;;;11.00;100.00
71567;BME280;59403;47.456;19.120;2022-11-04T12:34:05;99644.13;;;11.07;100.00
71567;BME280;59403;47.456;19.120;2022-11-04T12:36:49;99630.53;;;11.10;100.00
71567;BME280;59403;47.456;19.120;2022-11-04T12:39:31;99627.16;;;11.16;100.00
71567;BME280;59403;47.456;19.120;2022-11-04T12:42:12;99619.31;;;11.22;100.00
71567;BME280;59403;47.456;19.120;2022-11-04T12:44:50;99622.78;;;11.23;100.00
71567;BME280;59403;47.456;19.120;2022-11-04T12:47:27;99611.06;;;11.17;100.00
71567;BME280;59403;47.456;19.120;2022-11-04T12:53:11;99606.69;;;11.24;100.00
71567;BME280;59403;47.456;19.120;2022-11-04T12:55:46;99604.78;;;11.33;100.00
71567;BME280;59403;47.456;19.120;2022-11-04T12:58:24;99603.06;;;11.40;100.00
71567;BME280;59403;47.456;19.120;2022-11-04T13:01:00;99598.31;;;11.35;100.00
71567;BME280;59403;47.456;19.120;2022-11-04T13:03:32;99593.75;;;11.44;100.00
71567;BME280;59403;47.456;19.120;2022-11-04T13:06:04;99591.38;;;11.49;100.00
71567;BME280;59403;47.456;19.120;2022-11-04T13:08:39;99595.50;;;11.52;100.00
71567;BME280;59403;47.456;19.120;2022-11-04T13:11:12;99588.06;;;11.47;100.00
71567;BME280;59403;47.456;19.120;2022-11-04T13:13:55;99572.34;;;11.45;100.00
71567;BME280;59403;47.456;19.120;2022-11-04T13:16:23;99589.28;;;11.44;99.63
71567;BME280;59403;47.456;19.120;2022-11-04T13:18:51;99589.09;;;11.46;100.00
71567;BME280;59403;47.456;19.120;2022-11-04T13:21:23;99583.78;;;11.46;99.67
71567;BME280;59403;47.456;19.120;2022-11-04T13:23:56;99576.03;;;11.44;100.00
71567;BME280;59403;47.456;19.120;2022-11-04T13:26:23;99578.50;;;11.46;100.00